Time;durP1;ratioP1;P1;durP2;ratioP2;P2;SDS_P1;SDS_P2;PMS_P1;PMS_P2;Temp;Humidity;BMP_temperature;BMP_pressure;BME280_temperature;BME280_humidity;BME280_pressure;Samples;Min_cycle;Max_cycle;Signal;HPM_P1;HPM_P2
2023/12/05 00:01:34;;;;;;;55.55;25.33;;;;;;;;;;7368480;19;20006;-73
2023/12/05 00:04:00;;;;;;;51.10;25.08;;;;;;;;;;7364638;19;20038;-72
2023/12/05 00:06:25;;;;;;;44.75;24.42;;;;;;;;;;7387338;19;20145;-72
2023/12/05 00:08:51;;;;;;;51.28;25.15;;;;;;;;;;7363450;19;20115;-72
2023/12/05 00:11:16;;;;;;;54.03;26.17;;;;;;;;;;7362823;19;20834;-73
2023/12/05 00:13:42;;;;;;;50.53;24.80;;;;;;;;;;7363333;19;20345;-72
2023/12/05 00:16:08;;;;;;;45.83;23.27;;;;;;;;;;7363474;19;20033;-73
2023/12/05 00:18:35;;;;;;;59.15;27.42;;;;;;;;;;7386448;19;20492;-73
2023/12/05 00:21:00;;;;;;;60.00;27.58;;;;;;;;;;7363936;19;20082;-73
2023/12/05 00:23:25;;;;;;;58.85;26.17;;;;;;;;;;7362658;19;20461;-73
2023/12/05 00:25:51;;;;;;;58.60;27.33;;;;;;;;;;7363200;19;20457;-73
2023/12/05 00:28:16;;;;;;;52.88;25.80;;;;;;;;;;7364546;19;20014;-73
2023/12/05 00:30:41;;;;;;;51.85;25.98;;;;;;;;;;7363952;19;20019;-73
2023/12/05 00:33:07;;;;;;;54.47;26.00;;;;;;;;;;7385111;19;20480;-73
2023/12/05 00:35:32;;;;;;;55.65;25.73;;;;;;;;;;7364756;19;19998;-73
2023/12/05 00:37:58;;;;;;;55.10;26.60;;;;;;;;;;7367746;19;20002;-73
2023/12/05 00:40:29;;;;;;;55.03;25.65;;;;;;;;;;7368218;19;20063;-73
2023/12/05 00:42:55;;;;;;;53.78;25.60;;;;;;;;;;7368711;19;19995;-73
2023/12/05 00:45:21;;;;;;;55.63;25.40;;;;;;;;;;7384461;19;20022;-73
2023/12/05 00:47:46;;;;;;;48.45;25.83;;;;;;;;;;7363095;19;20063;-73
2023/12/05 00:50:11;;;;;;;57.30;26.48;;;;;;;;;;7363553;19;20009;-73
2023/12/05 00:52:37;;;;;;;50.72;26.25;;;;;;;;;;7360989;19;20014;-73
2023/12/05 00:55:03;;;;;;;63.67;28.30;;;;;;;;;;7363395;19;20002;-73
2023/12/05 00:57:28;;;;;;;55.75;25.35;;;;;;;;;;7382735;19;19995;-73
2023/12/05 00:59:54;;;;;;;50.42;25.80;;;;;;;;;;7364825;19;20002;-73
2023/12/05 01:02:19;;;;;;;49.08;25.55;;;;;;;;;;7367356;19;20845;-73
2023/12/05 01:04:45;;;;;;;52.03;25.67;;;;;;;;;;7366814;19;20563;-73
2023/12/05 01:07:12;;;;;;;63.33;28.13;;;;;;;;;;7367133;19;20005;-73
2023/12/05 01:09:39;;;;;;;51.75;26.20;;;;;;;;;;7387201;19;20483;-73
2023/12/05 01:12:05;;;;;;;61.08;27.30;;;;;;;;;;7390594;19;20009;-73
2023/12/05 01:14:30;;;;;;;52.67;26.05;;;;;;;;;;7370625;19;20062;-73
2023/12/05 01:16:55;;;;;;;54.10;27.35;;;;;;;;;;7369064;19;20015;-73
2023/12/05 01:19:21;;;;;;;57.25;28.48;;;;;;;;;;7369503;19;20010;-73
2023/12/05 01:21:46;;;;;;;58.70;27.80;;;;;;;;;;7370189;19;19998;-73
2023/12/05 01:24:11;;;;;;;56.83;26.63;;;;;;;;;;7389552;19;20011;-73
2023/12/05 01:26:36;;;;;;;54.42;26.90;;;;;;;;;;7367310;19;20002;-74
2023/12/05 01:29:03;;;;;;;59.85;26.98;;;;;;;;;;7369680;19;20032;-73
2023/12/05 01:31:28;;;;;;;53.47;25.67;;;;;;;;;;7370525;19;20068;-73
2023/12/05 01:33:53;;;;;;;57.20;26.27;;;;;;;;;;7367087;19;20002;-73
2023/12/05 01:36:19;;;;;;;50.15;23.77;;;;;;;;;;7388842;19;20003;-73
2023/12/05 01:38:44;;;;;;;55.40;26.48;;;;;;;;;;7369282;19;20002;-73
2023/12/05 01:41:09;;;;;;;55.42;26.70;;;;;;;;;;7369836;19;20007;-73
2023/12/05 01:43:35;;;;;;;51.83;25.90;;;;;;;;;;7368900;19;20002;-73
2023/12/05 01:46:01;;;;;;;52.72;25.23;;;;;;;;;;7367945;19;20011;-73
2023/12/05 01:48:27;;;;;;;60.13;26.55;;;;;;;;;;7389280;19;20010;-73
2023/12/05 01:50:54;;;;;;;63.67;27.58;;;;;;;;;;7367994;19;20019;-73
2023/12/05 01:53:21;;;;;;;57.03;26.08;;;;;;;;;;7367845;19;19999;-74
2023/12/05 01:55:47;;;;;;;57.28;26.48;;;;;;;;;;7367581;19;20017;-73
2023/12/05 01:58:13;;;;;;;57.58;27.58;;;;;;;;;;7369816;19;20543;-74
2023/12/05 02:00:39;;;;;;;55.45;27.13;;;;;;;;;;7378405;19;19995;-73
2023/12/05 02:03:04;;;;;;;60.25;26.50;;;;;;;;;;7389689;19;20002;-73
2023/12/05 02:05:30;;;;;;;58.42;27.88;;;;;;;;;;7367157;19;20021;-74
2023/12/05 02:07:57;;;;;;;58.28;28.45;;;;;;;;;;7368306;19;20070;-74
2023/12/05 02:10:23;;;;;;;56.80;27.17;;;;;;;;;;7367292;19;20002;-74
2023/12/05 02:12:48;;;;;;;58.28;27.40;;;;;;;;;;7367622;19;20002;-74
2023/12/05 02:15:14;;;;;;;55.80;26.50;;;;;;;;;;7388898;19;19998;-74
2023/12/05 02:18:04;;;;;;;55.13;25.67;;;;;;;;;;7367127;19;20464;-73
2023/12/05 02:20:41;;;;;;;51.38;25.63;;;;;;;;;;7367972;19;20465;-74
2023/12/05 02:23:45;;;;;;;54.58;26.40;;;;;;;;;;7366751;19;20069;-74
2023/12/05 02:26:13;;;;;;;54.30;26.27;;;;;;;;;;7365781;19;20026;-74
2023/12/05 02:28:38;;;;;;;56.10;25.77;;;;;;;;;;7368491;19;20010;-74
2023/12/05 02:31:05;;;;;;;54.30;25.85;;;;;;;;;;7368176;19;20010;-74
2023/12/05 02:33:30;;;;;;;52.17;25.95;;;;;;;;;;7387611;19;20765;-74
2023/12/05 02:36:08;;;;;;;59.78;26.48;;;;;;;;;;7364392;19;20003;-74
2023/12/05 02:39:05;;;;;;;53.63;25.83;;;;;;;;;;7366998;19;20025;-74
2023/12/05 02:41:36;;;;;;;49.25;25.13;;;;;;;;;;7367565;19;20141;-74
2023/12/05 02:44:05;;;;;;;;;;;;;;;;;;7365256;19;20852;-74
2023/12/05 02:46:31;;;;;;;52.42;22.95;;;;;;;;;;7366444;19;20030;-74
2023/12/05 02:48:58;;;;;;;54.35;25.73;;;;;;;;;;7366234;19;20006;-74
2023/12/05 02:51:23;;;;;;;54.05;24.58;;;;;;;;;;7388989;19;20365;-74
2023/12/05 02:53:48;;;;;;;53.65;25.95;;;;;;;;;;7365928;19;20010;-73
2023/12/05 02:56:14;;;;;;;54.80;25.73;;;;;;;;;;7366252;19;20064;-74
2023/12/05 02:58:40;;;;;;;56.70;26.45;;;;;;;;;;7369617;19;20471;-74
2023/12/05 03:01:06;;;;;;;62.90;26.92;;;;;;;;;;7354488;19;20006;-73
2023/12/05 03:03:31;;;;;;;57.72;26.20;;;;;;;;;;7390755;19;20693;-73
2023/12/05 03:05:56;;;;;;;60.10;26.25;;;;;;;;;;7369736;19;20010;-73
2023/12/05 03:08:21;;;;;;;58.55;26.38;;;;;;;;;;7369901;19;20016;-73
2023/12/05 03:10:47;;;;;;;59.10;26.63;;;;;;;;;;7370128;19;20031;-73
2023/12/05 03:13:12;;;;;;;60.78;27.48;;;;;;;;;;7368949;19;20021;-73
2023/12/05 03:15:37;;;;;;;62.22;26.52;;;;;;;;;;7383707;19;20136;-73
2023/12/05 03:18:03;;;;;;;62.17;26.77;;;;;;;;;;7372861;19;20027;-73
2023/12/05 03:20:28;;;;;;;62.95;27.48;;;;;;;;;;7364182;19;20014;-73
2023/12/05 03:22:54;;;;;;;64.03;28.23;;;;;;;;;;7364571;19;20033;-73
2023/12/05 03:25:19;;;;;;;62.50;28.38;;;;;;;;;;7364552;19;20015;-73
2023/12/05 03:27:44;;;;;;;64.38;26.98;;;;;;;;;;7365580;19;20002;-73
2023/12/05 03:30:10;;;;;;;64.32;26.55;;;;;;;;;;7387191;19;20602;-73
2023/12/05 03:32:35;;;;;;;61.60;27.00;;;;;;;;;;7364221;19;20014;-73
2023/12/05 03:35:01;;;;;;;55.50;26.27;;;;;;;;;;7364476;19;20024;-73
2023/12/05 03:37:26;;;;;;;61.45;27.23;;;;;;;;;;7363883;19;20604;-73
2023/12/05 03:39:51;;;;;;;56.63;26.63;;;;;;;;;;7365219;19;20011;-73
2023/12/05 03:42:17;;;;;;;56.40;26.85;;;;;;;;;;7385836;19;20021;-73
2023/12/05 03:44:42;;;;;;;55.03;25.60;;;;;;;;;;7364458;19;20012;-73
2023/12/05 03:47:07;;;;;;;54.95;26.52;;;;;;;;;;7363934;19;20006;-73
2023/12/05 03:49:33;;;;;;;56.60;25.92;;;;;;;;;;7364639;19;20010;-73
2023/12/05 03:52:01;;;;;;;55.17;25.98;;;;;;;;;;7364774;19;20071;-73
2023/12/05 03:54:26;;;;;;;59.08;27.52;;;;;;;;;;7384700;19;20472;-73
2023/12/05 03:56:52;;;;;;;67.03;28.27;;;;;;;;;;7359860;19;20038;-73
2023/12/05 03:59:17;;;;;;;67.93;27.95;;;;;;;;;;7362902;19;20070;-73
2023/12/05 04:01:43;;;;;;;67.95;29.10;;;;;;;;;;7360996;19;20034;-72
2023/12/05 04:04:08;;;;;;;61.30;27.63;;;;;;;;;;7359576;19;20014;-74
2023/12/05 04:06:36;;;;;;;57.90;27.58;;;;;;;;;;7382533;19;20479;-74
2023/12/05 04:09:04;;;;;;;65.10;27.48;;;;;;;;;;7361389;19;20078;-74
2023/12/05 04:11:31;;;;;;;62.78;28.52;;;;;;;;;;7362851;19;20084;-74
2023/12/05 04:13:57;;;;;;;61.25;27.00;;;;;;;;;;7362879;19;20017;-74
2023/12/05 04:16:23;;;;;;;55.15;26.80;;;;;;;;;;7362909;19;20021;-74
2023/12/05 04:18:48;;;;;;;59.72;26.83;;;;;;;;;;7363969;19;20402;-74
2023/12/05 04:21:14;;;;;;;59.25;26.35;;;;;;;;;;7386683;19;20029;-74
2023/12/05 04:23:40;;;;;;;74.43;33.20;;;;;;;;;;7362219;19;20085;-74
2023/12/05 04:26:06;;;;;;;98.93;45.10;;;;;;;;;;7363059;19;20019;-74
2023/12/05 04:28:32;;;;;;;65.90;29.05;;;;;;;;;;7363965;19;20015;-74
2023/12/05 04:30:57;;;;;;;63.63;28.38;;;;;;;;;;7365336;19;20015;-74
2023/12/05 04:33:23;;;;;;;62.40;26.85;;;;;;;;;;7384294;19;20005;-74
2023/12/05 04:35:48;;;;;;;67.45;26.77;;;;;;;;;;7368630;19;20551;-74
2023/12/05 04:38:15;;;;;;;66.22;26.77;;;;;;;;;;7375200;19;20010;-74
2023/12/05 04:40:40;;;;;;;63.88;27.75;;;;;;;;;;7372112;19;20690;-74
2023/12/05 04:43:05;;;;;;;66.43;28.45;;;;;;;;;;7370284;19;20006;-73
2023/12/05 04:45:31;;;;;;;64.07;27.52;;;;;;;;;;7396365;19;20381;-74
2023/12/05 04:47:56;;;;;;;54.92;26.40;;;;;;;;;;7374123;19;20118;-74
2023/12/05 04:50:22;;;;;;;58.75;25.63;;;;;;;;;;7372315;19;20009;-74
2023/12/05 04:52:47;;;;;;;61.30;26.98;;;;;;;;;;7369016;19;20010;-74
2023/12/05 04:55:12;;;;;;;67.90;27.23;;;;;;;;;;7368366;19;20006;-74
2023/12/05 04:57:38;;;;;;;65.43;26.50;;;;;;;;;;7386277;19;20003;-74
2023/12/05 05:00:05;;;;;;;60.05;27.92;;;;;;;;;;7379586;19;20011;-74
2023/12/05 05:02:31;;;;;;;67.03;28.20;;;;;;;;;;7369213;19;20009;-74
2023/12/05 05:04:56;;;;;;;68.50;28.08;;;;;;;;;;7370613;19;20317;-74
2023/12/05 05:07:21;;;;;;;68.03;28.73;;;;;;;;;;7368898;19;20109;-74
2023/12/05 05:09:47;;;;;;;70.47;28.30;;;;;;;;;;7369635;19;20491;-74
2023/12/05 05:12:13;;;;;;;60.92;27.20;;;;;;;;;;7391154;19;20059;-74
2023/12/05 05:14:38;;;;;;;71.18;27.52;;;;;;;;;;7369219;19;20010;-74
2023/12/05 05:17:04;;;;;;;62.10;26.20;;;;;;;;;;7368612;19;20002;-74
2023/12/05 05:19:32;;;;;;;57.45;27.55;;;;;;;;;;7370294;19;20503;-74
2023/12/05 05:21:58;;;;;;;72.25;26.92;;;;;;;;;;7369231;19;20041;-74
2023/12/05 05:24:23;;;;;;;69.47;26.85;;;;;;;;;;7387551;19;20003;-74
2023/12/05 05:26:49;;;;;;;60.30;25.42;;;;;;;;;;7367635;19;20580;-74
2023/12/05 05:29:14;;;;;;;56.33;26.88;;;;;;;;;;7368246;19;20279;-74
2023/12/05 05:31:39;;;;;;;61.78;27.77;;;;;;;;;;7365145;19;20030;-74
2023/12/05 05:34:04;;;;;;;60.05;26.52;;;;;;;;;;7360775;19;20152;-74
2023/12/05 05:36:30;;;;;;;57.13;25.35;;;;;;;;;;7387231;19;20059;-74
2023/12/05 05:38:55;;;;;;;62.33;29.25;;;;;;;;;;7366208;19;20002;-75
2023/12/05 05:41:20;;;;;;;65.03;30.70;;;;;;;;;;7362284;19;20124;-74
2023/12/05 05:43:46;;;;;;;83.40;39.10;;;;;;;;;;7366160;19;20085;-74
2023/12/05 05:46:11;;;;;;;61.40;26.42;;;;;;;;;;7363254;19;20100;-75
2023/12/05 05:48:37;;;;;;;53.13;25.48;;;;;;;;;;7389856;19;20015;-76
2023/12/05 05:51:02;;;;;;;56.35;25.52;;;;;;;;;;7368863;19;20015;-76
2023/12/05 05:53:27;;;;;;;60.65;27.35;;;;;;;;;;7369757;19;20014;-75
2023/12/05 05:55:53;;;;;;;60.00;26.33;;;;;;;;;;7366112;19;20010;-74
2023/12/05 05:58:18;;;;;;;54.72;24.85;;;;;;;;;;7369351;19;20023;-75
2023/12/05 06:00:46;;;;;;;54.03;23.80;;;;;;;;;;7369399;19;20078;-75
2023/12/05 06:03:11;;;;;;;53.10;23.95;;;;;;;;;;7388991;19;20461;-77
2023/12/05 06:05:37;;;;;;;54.15;25.58;;;;;;;;;;7369047;19;20010;-74
2023/12/05 06:08:02;;;;;;;55.63;24.13;;;;;;;;;;7369461;19;20014;-74
2023/12/05 06:10:27;;;;;;;47.33;23.23;;;;;;;;;;7373802;19;20030;-74
2023/12/05 06:12:53;;;;;;;45.88;22.45;;;;;;;;;;7373364;19;20002;-75
2023/12/05 06:15:18;;;;;;;46.75;23.45;;;;;;;;;;7378831;19;20460;-74
2023/12/05 06:17:44;;;;;;;44.17;22.27;;;;;;;;;;7364227;19;20007;-74
2023/12/05 06:20:09;;;;;;;45.03;22.52;;;;;;;;;;7369048;19;20484;-75
2023/12/05 06:22:35;;;;;;;44.90;22.45;;;;;;;;;;7364010;19;20488;-76
2023/12/05 06:25:00;;;;;;;47.75;22.55;;;;;;;;;;7365230;19;20018;-76
2023/12/05 06:27:25;;;;;;;46.75;23.17;;;;;;;;;;7384587;19;19995;-76
2023/12/05 06:29:50;;;;;;;46.97;22.58;;;;;;;;;;7363109;19;19998;-76
2023/12/05 06:32:16;;;;;;;47.47;22.80;;;;;;;;;;7365029;19;20007;-75
2023/12/05 06:34:41;;;;;;;47.13;22.33;;;;;;;;;;7364398;19;20018;-75
2023/12/05 06:37:08;;;;;;;46.83;23.15;;;;;;;;;;7365781;19;20038;-75
2023/12/05 06:39:33;;;;;;;41.72;21.50;;;;;;;;;;7390048;19;20024;-75
2023/12/05 06:41:59;;;;;;;43.40;21.65;;;;;;;;;;7370176;19;20521;-75
2023/12/05 06:44:24;;;;;;;41.28;21.50;;;;;;;;;;7366622;19;20010;-75
2023/12/05 06:46:49;;;;;;;45.22;20.90;;;;;;;;;;7364552;19;20021;-75
2023/12/05 06:49:14;;;;;;;46.70;21.90;;;;;;;;;;7364360;19;20074;-75
2023/12/05 06:51:40;;;;;;;45.97;21.27;;;;;;;;;;7364835;19;20003;-75
2023/12/05 06:54:05;;;;;;;45.17;21.05;;;;;;;;;;7383446;19;20590;-74
2023/12/05 06:56:31;;;;;;;41.38;21.30;;;;;;;;;;7357959;19;20001;-75
2023/12/05 06:58:56;;;;;;;42.67;21.70;;;;;;;;;;7364456;19;19994;-75
2023/12/05 07:01:21;;;;;;;44.72;21.58;;;;;;;;;;7365097;19;20016;-76
2023/12/05 07:03:47;;;;;;;39.42;20.67;;;;;;;;;;7360943;19;19999;-74
2023/12/05 07:06:12;;;;;;;52.00;28.50;;;;;;;;;;7376223;19;20005;-74
2023/12/05 07:08:37;;;;;;;43.15;24.08;;;;;;;;;;7362275;19;20002;-74
2023/12/05 07:11:03;;;;;;;149.13;76.35;;;;;;;;;;7363801;19;20106;-74
2023/12/05 07:13:28;;;;;;;194.18;98.38;;;;;;;;;;7361360;19;19998;-75
2023/12/05 07:15:54;;;;;;;149.50;76.43;;;;;;;;;;7363091;19;20017;-75
2023/12/05 07:18:19;;;;;;;121.43;60.33;;;;;;;;;;7385682;19;20475;-74
2023/12/05 07:20:44;;;;;;;193.18;101.40;;;;;;;;;;7363650;19;20011;-75
2023/12/05 07:23:10;;;;;;;145.55;78.78;;;;;;;;;;7364183;19;20013;-74
2023/12/05 07:25:35;;;;;;;81.20;42.13;;;;;;;;;;7363602;19;20021;-74
2023/12/05 07:28:00;;;;;;;53.70;29.80;;;;;;;;;;7365035;19;20991;-74
2023/12/05 07:30:26;;;;;;;46.20;24.30;;;;;;;;;;7383867;19;20007;-74
2023/12/05 07:32:51;;;;;;;42.72;22.27;;;;;;;;;;7366567;19;19998;-74
2023/12/05 07:35:16;;;;;;;37.83;19.63;;;;;;;;;;7364040;19;20023;-74
2023/12/05 07:37:42;;;;;;;41.20;20.15;;;;;;;;;;7364294;19;20002;-74
2023/12/05 07:40:08;;;;;;;41.67;20.45;;;;;;;;;;7363418;19;20008;-75
2023/12/05 07:42:33;;;;;;;38.38;19.48;;;;;;;;;;7384314;19;19995;-74
2023/12/05 07:44:58;;;;;;;34.97;18.27;;;;;;;;;;7362786;19;20564;-74
2023/12/05 07:47:24;;;;;;;34.78;18.90;;;;;;;;;;7362070;19;20353;-75
2023/12/05 07:49:50;;;;;;;36.15;17.65;;;;;;;;;;7361669;19;20021;-74
2023/12/05 07:52:16;;;;;;;33.55;17.92;;;;;;;;;;7364459;19;20021;-74
2023/12/05 07:54:41;;;;;;;33.88;17.48;;;;;;;;;;7363461;19;20002;-76
2023/12/05 07:57:06;;;;;;;26.27;14.32;;;;;;;;;;7381931;19;20036;-76
2023/12/05 07:59:32;;;;;;;28.40;15.48;;;;;;;;;;7362078;19;20532;-74
2023/12/05 08:01:57;;;;;;;30.13;15.63;;;;;;;;;;7362837;19;20014;-74
2023/12/05 08:04:22;;;;;;;24.98;14.77;;;;;;;;;;7348090;19;20007;-74
2023/12/05 08:06:48;;;;;;;26.70;14.55;;;;;;;;;;7361263;19;20075;-74
2023/12/05 08:09:14;;;;;;;27.73;15.82;;;;;;;;;;7390097;19;20013;-73
2023/12/05 08:11:39;;;;;;;26.75;14.43;;;;;;;;;;7368657;19;20020;-73
2023/12/05 08:14:04;;;;;;;30.02;14.65;;;;;;;;;;7369575;19;20267;-74
2023/12/05 08:16:30;;;;;;;23.83;15.38;;;;;;;;;;7367481;19;20038;-74
2023/12/05 08:18:55;;;;;;;24.02;14.40;;;;;;;;;;7370261;19;20337;-75
2023/12/05 08:21:20;;;;;;;23.88;12.40;;;;;;;;;;7391774;19;20007;-76
2023/12/05 08:23:46;;;;;;;25.85;13.95;;;;;;;;;;7372804;19;20007;-74
2023/12/05 08:26:11;;;;;;;22.67;15.13;;;;;;;;;;7367416;19;20014;-75
2023/12/05 08:28:37;;;;;;;24.50;16.35;;;;;;;;;;7370128;19;20002;-73
2023/12/05 08:31:03;;;;;;;29.20;13.15;;;;;;;;;;7368446;19;20126;-74
2023/12/05 08:33:28;;;;;;;27.83;13.32;;;;;;;;;;7387998;19;19998;-74
2023/12/05 08:35:53;;;;;;;23.00;12.98;;;;;;;;;;7366031;19;20002;-75
2023/12/05 08:38:19;;;;;;;22.08;14.05;;;;;;;;;;7370476;19;20025;-73
2023/12/05 08:40:44;;;;;;;23.52;12.15;;;;;;;;;;7368174;19;20101;-73
2023/12/05 08:43:10;;;;;;;20.55;11.50;;;;;;;;;;7369487;19;20040;-74
2023/12/05 08:45:35;;;;;;;20.83;11.88;;;;;;;;;;7390688;19;20012;-74
2023/12/05 08:48:01;;;;;;;18.08;10.45;;;;;;;;;;7368584;19;20010;-75
2023/12/05 08:50:26;;;;;;;22.00;9.27;;;;;;;;;;7368973;19;20006;-75
2023/12/05 08:52:52;;;;;;;17.55;9.95;;;;;;;;;;7367116;19;20010;-74
2023/12/05 08:55:17;;;;;;;18.10;9.25;;;;;;;;;;7368517;19;20014;-74
2023/12/05 08:57:42;;;;;;;15.52;8.88;;;;;;;;;;7369931;19;20003;-74
2023/12/05 09:00:08;;;;;;;13.88;8.38;;;;;;;;;;7390889;19;19998;-74
2023/12/05 09:02:33;;;;;;;17.98;8.32;;;;;;;;;;7368460;19;20010;-75
2023/12/05 09:05:01;;;;;;;15.65;8.27;;;;;;;;;;7369327;19;20370;-74
2023/12/05 09:07:26;;;;;;;17.33;8.38;;;;;;;;;;7367360;19;20003;-75
2023/12/05 09:09:51;;;;;;;15.95;7.70;;;;;;;;;;7368731;19;19994;-74
2023/12/05 09:12:17;;;;;;;14.95;7.82;;;;;;;;;;7389020;19;20493;-74
2023/12/05 09:14:42;;;;;;;13.02;6.68;;;;;;;;;;7369055;19;20007;-74
2023/12/05 09:17:09;;;;;;;14.77;7.55;;;;;;;;;;7367170;19;20048;-75
2023/12/05 09:19:35;;;;;;;15.02;7.13;;;;;;;;;;7370429;19;20007;-74
2023/12/05 09:22:01;;;;;;;11.77;6.57;;;;;;;;;;7369801;19;20023;-74
2023/12/05 09:24:26;;;;;;;11.73;6.63;;;;;;;;;;7390175;19;20027;-75
2023/12/05 09:26:52;;;;;;;13.38;6.30;;;;;;;;;;7369111;19;20030;-74
2023/12/05 09:29:17;;;;;;;15.55;6.47;;;;;;;;;;7368849;19;20002;-74
2023/12/05 09:31:43;;;;;;;11.20;5.65;;;;;;;;;;7369848;19;20010;-74
2023/12/05 09:34:08;;;;;;;13.43;6.20;;;;;;;;;;7366981;19;20456;-74
2023/12/05 09:36:33;;;;;;;12.18;6.13;;;;;;;;;;7387376;19;20007;-75
2023/12/05 09:38:59;;;;;;;12.52;6.03;;;;;;;;;;7372789;19;20014;-75
2023/12/05 09:41:24;;;;;;;13.60;7.28;;;;;;;;;;7373669;19;20007;-75
2023/12/05 09:43:51;;;;;;;9.73;5.57;;;;;;;;;;7375547;19;20018;-75
2023/12/05 09:46:20;;;;;;;11.57;6.25;;;;;;;;;;7375725;19;20053;-75
2023/12/05 09:48:47;;;;;;;11.45;6.35;;;;;;;;;;7378813;19;20038;-75
2023/12/05 09:51:19;;;;;;;13.88;5.68;;;;;;;;;;7397859;19;20014;-75
2023/12/05 09:53:45;;;;;;;10.43;5.97;;;;;;;;;;7375007;19;20021;-75
2023/12/05 09:56:12;;;;;;;10.48;5.80;;;;;;;;;;7362191;19;20007;-75
2023/12/05 09:58:43;;;;;;;10.75;5.38;;;;;;;;;;7375281;19;20495;-75
2023/12/05 10:01:12;;;;;;;8.23;5.13;;;;;;;;;;7369033;19;20013;-74
2023/12/05 10:03:39;;;;;;;12.20;5.53;;;;;;;;;;7389552;19;20006;-74
2023/12/05 10:06:06;;;;;;;11.65;5.40;;;;;;;;;;7367762;19;19999;-74
2023/12/05 10:08:32;;;;;;;10.80;5.40;;;;;;;;;;7368904;19;19998;-75
2023/12/05 10:11:00;;;;;;;11.38;5.07;;;;;;;;;;7370466;19;20003;-75
2023/12/05 10:13:26;;;;;;;8.60;4.88;;;;;;;;;;7378447;19;20072;-76
2023/12/05 10:15:52;;;;;;;10.05;5.13;;;;;;;;;;7370137;19;21304;-75
2023/12/05 10:18:18;;;;;;;8.05;4.82;;;;;;;;;;7389151;19;20019;-75
2023/12/05 10:20:43;;;;;;;11.93;4.60;;;;;;;;;;7367096;19;20078;-75
2023/12/05 10:23:09;;;;;;;10.18;4.47;;;;;;;;;;7366152;19;20126;-74
2023/12/05 10:25:34;;;;;;;8.25;4.50;;;;;;;;;;7365732;19;20020;-75
2023/12/05 10:28:03;;;;;;;9.20;4.70;;;;;;;;;;7366392;19;20010;-75
2023/12/05 10:30:33;;;;;;;10.15;4.63;;;;;;;;;;7387829;19;20026;-75
2023/12/05 10:33:16;;;;;;;8.13;4.20;;;;;;;;;;7364642;19;20781;-75
2023/12/05 10:35:43;;;;;;;9.50;4.07;;;;;;;;;;7364306;19;20014;-74
2023/12/05 10:38:10;;;;;;;9.48;4.30;;;;;;;;;;7365454;19;20479;-74
2023/12/05 10:40:56;;;;;;;9.90;4.55;;;;;;;;;;7366338;19;20033;-74
2023/12/05 10:43:26;;;;;;;7.72;4.18;;;;;;;;;;7371594;19;20374;-74
2023/12/05 10:45:52;;;;;;;8.20;3.50;;;;;;;;;;7366063;19;20002;-76
2023/12/05 10:48:18;;;;;;;8.50;3.58;;;;;;;;;;7387152;19;20006;-76
2023/12/05 10:50:45;;;;;;;7.93;3.50;;;;;;;;;;7367735;19;19998;-76
2023/12/05 10:53:11;;;;;;;8.38;3.40;;;;;;;;;;7367444;19;20009;-74
2023/12/05 10:55:36;;;;;;;8.60;3.50;;;;;;;;;;7366325;19;20003;-75
2023/12/05 10:58:02;;;;;;;7.47;3.22;;;;;;;;;;7369314;19;20007;-74
2023/12/05 11:00:30;;;;;;;7.85;3.53;;;;;;;;;;7388104;19;20092;-74
2023/12/05 11:02:56;;;;;;;5.32;3.20;;;;;;;;;;7363677;19;20019;-74
2023/12/05 11:05:23;;;;;;;6.70;3.03;;;;;;;;;;7364208;19;20498;-74
2023/12/05 11:07:48;;;;;;;7.43;3.10;;;;;;;;;;7365026;19;20002;-75
2023/12/05 11:10:16;;;;;;;8.18;3.38;;;;;;;;;;7365706;19;20094;-74
2023/12/05 11:12:44;;;;;;;5.45;2.83;;;;;;;;;;7364499;19;19998;-75
2023/12/05 11:15:11;;;;;;;8.25;3.33;;;;;;;;;;7384177;19;20760;-75
2023/12/05 11:17:49;;;;;;;8.80;3.55;;;;;;;;;;7365182;19;20088;-74
2023/12/05 11:20:20;;;;;;;8.02;3.00;;;;;;;;;;7363460;19;20007;-75
2023/12/05 11:23:20;;;;;;;5.32;2.80;;;;;;;;;;7363665;19;20007;-75
2023/12/05 11:26:08;;;;;;;7.40;2.58;;;;;;;;;;7363604;19;20122;-75
2023/12/05 11:28:33;;;;;;;7.43;3.00;;;;;;;;;;7363906;19;20530;-75
2023/12/05 11:31:19;;;;;;;6.70;3.08;;;;;;;;;;7365505;19;20006;-75
2023/12/05 11:33:59;;;;;;;8.55;3.38;;;;;;;;;;7363125;19;20007;-75
2023/12/05 11:36:50;;;;;;;13.38;4.10;;;;;;;;;;7384071;19;20011;-76
2023/12/05 11:39:16;;;;;;;9.40;3.30;;;;;;;;;;7363365;19;20373;-76
2023/12/05 11:42:11;;;;;;;6.28;3.50;;;;;;;;;;7363763;19;20006;-76
2023/12/05 11:44:40;;;;;;;9.18;3.33;;;;;;;;;;7362348;19;20019;-75
2023/12/05 11:47:13;;;;;;;7.68;2.90;;;;;;;;;;7363471;19;20032;-75
2023/12/05 11:49:54;;;;;;;7.90;3.10;;;;;;;;;;7362935;19;20099;-74
2023/12/05 11:52:20;;;;;;;6.05;2.83;;;;;;;;;;7362473;19;20026;-75
2023/12/05 11:54:48;;;;;;;6.72;2.97;;;;;;;;;;7362380;19;20551;-75
2023/12/05 11:57:15;;;;;;;7.57;2.92;;;;;;;;;;7381889;19;20105;-71
2023/12/05 11:59:43;;;;;;;6.50;2.75;;;;;;;;;;7362427;19;20082;-71
2023/12/05 12:02:12;;;;;;;8.82;3.17;;;;;;;;;;7362911;19;20011;-75
2023/12/05 12:04:38;;;;;;;7.70;2.95;;;;;;;;;;7362664;19;20011;-74
2023/12/05 12:07:03;;;;;;;6.75;3.22;;;;;;;;;;7361870;19;20022;-74
2023/12/05 12:09:28;;;;;;;7.72;2.97;;;;;;;;;;7385038;19;20002;-75
2023/12/05 12:11:56;;;;;;;9.02;2.75;;;;;;;;;;7361995;19;20675;-75
2023/12/05 12:14:21;;;;;;;9.52;3.25;;;;;;;;;;7361179;19;20500;-74
2023/12/05 12:16:48;;;;;;;5.30;2.72;;;;;;;;;;7362299;19;20010;-74
2023/12/05 12:19:15;;;;;;;7.45;3.03;;;;;;;;;;7363778;19;20010;-75
2023/12/05 12:21:42;;;;;;;7.20;3.08;;;;;;;;;;7362579;19;20002;-75
2023/12/05 12:24:08;;;;;;;5.82;3.00;;;;;;;;;;7382291;19;20491;-77
2023/12/05 12:26:33;;;;;;;9.40;3.47;;;;;;;;;;7363919;19;20012;-75
2023/12/05 12:29:09;;;;;;;8.30;3.65;;;;;;;;;;7363334;19;20002;-75
2023/12/05 12:31:35;;;;;;;11.32;3.40;;;;;;;;;;7364976;19;20006;-74
2023/12/05 12:34:02;;;;;;;8.65;3.25;;;;;;;;;;7362574;19;20386;-75
2023/12/05 12:36:29;;;;;;;9.10;3.22;;;;;;;;;;7383487;19;20500;-75
2023/12/05 12:38:56;;;;;;;5.68;3.03;;;;;;;;;;7359054;19;20009;-75
2023/12/05 12:41:21;;;;;;;6.50;2.75;;;;;;;;;;7362965;19;20007;-75
2023/12/05 12:43:47;;;;;;;5.70;2.83;;;;;;;;;;7360313;19;20014;-74
2023/12/05 12:46:13;;;;;;;7.10;2.88;;;;;;;;;;7362346;19;20005;-74
2023/12/05 12:48:38;;;;;;;7.82;3.15;;;;;;;;;;7378422;19;20121;-75
2023/12/05 12:51:05;;;;;;;5.43;2.78;;;;;;;;;;7370439;19;20022;-76
2023/12/05 12:53:32;;;;;;;8.48;2.97;;;;;;;;;;7358716;19;20003;-73
2023/12/05 12:55:57;;;;;;;5.53;2.92;;;;;;;;;;7364233;19;20539;-74
2023/12/05 12:58:42;;;;;;;7.32;2.80;;;;;;;;;;7367931;19;20035;-73
2023/12/05 13:01:10;;;;;;;9.07;4.05;;;;;;;;;;7368004;19;20037;-75
2023/12/05 13:03:35;;;;;;;7.65;3.00;;;;;;;;;;7388489;19;20010;-76
2023/12/05 13:06:00;;;;;;;4.70;2.40;;;;;;;;;;7368315;19;20074;-74
2023/12/05 13:08:27;;;;;;;4.80;2.30;;;;;;;;;;7367075;19;20127;-74
2023/12/05 13:10:52;;;;;;;4.57;2.15;;;;;;;;;;7368343;19;20006;-74
2023/12/05 13:13:17;;;;;;;5.55;2.35;;;;;;;;;;7365514;19;20296;-75
2023/12/05 13:15:46;;;;;;;6.38;2.05;;;;;;;;;;7365595;19;20121;-75
2023/12/05 13:18:11;;;;;;;5.57;2.30;;;;;;;;;;7389148;19;20022;-75
2023/12/05 13:20:51;;;;;;;3.42;1.77;;;;;;;;;;7366985;19;20002;-74
2023/12/05 13:23:18;;;;;;;5.43;2.20;;;;;;;;;;7365132;19;20002;-75
2023/12/05 13:25:44;;;;;;;4.50;2.00;;;;;;;;;;7365549;19;20477;-74
2023/12/05 13:28:09;;;;;;;4.57;2.08;;;;;;;;;;7367426;19;20006;-74
2023/12/05 13:30:35;;;;;;;4.25;2.20;;;;;;;;;;7389166;19;20002;-75
2023/12/05 13:33:01;;;;;;;4.85;2.20;;;;;;;;;;7365118;19;19995;-75
2023/12/05 13:35:26;;;;;;;4.85;2.47;;;;;;;;;;7364275;19;20029;-75
2023/12/05 13:37:52;;;;;;;6.47;2.92;;;;;;;;;;7368142;19;20006;-74
2023/12/05 13:40:18;;;;;;;8.68;3.78;;;;;;;;;;7368854;19;20468;-76
2023/12/05 13:42:43;;;;;;;6.78;2.53;;;;;;;;;;7368628;19;20005;-75
2023/12/05 13:45:08;;;;;;;4.00;2.30;;;;;;;;;;7393244;19;20038;-75
2023/12/05 13:47:34;;;;;;;4.18;2.40;;;;;;;;;;7372528;19;20010;-74
2023/12/05 13:49:59;;;;;;;5.82;2.13;;;;;;;;;;7371825;19;20027;-74
2023/12/05 13:52:25;;;;;;;6.15;3.70;;;;;;;;;;7371359;19;20007;-74
2023/12/05 13:54:50;;;;;;;3.83;2.10;;;;;;;;;;7367271;19;20069;-74
2023/12/05 13:57:15;;;;;;;5.15;2.30;;;;;;;;;;7387149;19;20022;-75
2023/12/05 13:59:41;;;;;;;4.38;2.33;;;;;;;;;;7364686;19;20002;-75
2023/12/05 14:02:06;;;;;;;5.30;2.50;;;;;;;;;;7366949;19;20006;-75
2023/12/05 14:04:33;;;;;;;4.63;2.33;;;;;;;;;;7367071;19;20070;-76
2023/12/05 14:06:59;;;;;;;5.70;2.30;;;;;;;;;;7366940;19;20011;-76
2023/12/05 14:09:25;;;;;;;4.53;1.92;;;;;;;;;;7389218;19;19994;-75
2023/12/05 14:11:50;;;;;;;2.10;1.55;;;;;;;;;;7365361;19;20007;-75
2023/12/05 14:14:16;;;;;;;1.13;1.08;;;;;;;;;;7364151;19;20066;-75
2023/12/05 14:16:41;;;;;;;1.92;1.20;;;;;;;;;;7367966;19;20134;-77
2023/12/05 14:19:06;;;;;;;1.60;1.20;;;;;;;;;;7365297;19;20006;-76
2023/12/05 14:21:32;;;;;;;29.10;16.98;;;;;;;;;;7388272;19;20007;-76
2023/12/05 14:23:57;;;;;;;4.00;2.20;;;;;;;;;;7363112;19;20010;-77